sensor_id;sensor_type;location;lat;lon;timestamp;pressure;altitude;pressure_sealevel;temperature;humidity
29909;BME280;36247;51.952;6.146;2024-02-26T00:00:07;99927.63;;;5.29;100.00
29909;BME280;36247;51.952;6.146;2024-02-26T00:02:37;99924.22;;;5.34;100.00
29909;BME280;36247;51.952;6.146;2024-02-26T00:05:07;99924.97;;;5.28;100.00
29909;BME280;36247;51.952;6.146;2024-02-26T00:07:33;99916.97;;;5.22;100.00
29909;BME280;36247;51.952;6.146;2024-02-26T00:09:58;99918.81;;;5.26;100.00
29909;BME280;36247;51.952;6.146;2024-02-26T00:12:23;99922.91;;;5.13;100.00
29909;BME280;36247;51.952;6.146;2024-02-26T00:14:49;99925.56;;;5.15;100.00
29909;BME280;36247;51.952;6.146;2024-02-26T00:17:15;99921.09;;;5.10;100.00
29909;BME280;36247;51.952;6.146;2024-02-26T00:19:41;99920.13;;;5.05;100.00
29909;BME280;36247;51.952;6.146;2024-02-26T00:22:06;99913.16;;;5.07;100.00
29909;BME280;36247;51.952;6.146;2024-02-26T00:24:32;99910.47;;;5.04;100.00
29909;BME280;36247;51.952;6.146;2024-02-26T00:26:59;99915.69;;;5.03;100.00
29909;BME280;36247;51.952;6.146;2024-02-26T00:29:24;99907.88;;;5.06;100.00
29909;BME280;36247;51.952;6.146;2024-02-26T00:31:51;99913.94;;;5.02;100.00
29909;BME280;36247;51.952;6.146;2024-02-26T00:34:17;99906.06;;;5.02;100.00
29909;BME280;36247;51.952;6.146;2024-02-26T00:36:43;99905.91;;;4.95;100.00
29909;BME280;36247;51.952;6.146;2024-02-26T00:39:08;99907.00;;;5.05;100.00
29909;BME280;36247;51.952;6.146;2024-02-26T00:41:38;99905.16;;;5.01;100.00
29909;BME280;36247;51.952;6.146;2024-02-26T00:44:04;99908.06;;;5.14;100.00
29909;BME280;36247;51.952;6.146;2024-02-26T00:46:29;99902.78;;;5.12;100.00
29909;BME280;36247;51.952;6.146;2024-02-26T00:48:55;99899.53;;;5.25;100.00
29909;BME280;36247;51.952;6.146;2024-02-26T00:51:20;99898.53;;;5.19;100.00
29909;BME280;36247;51.952;6.146;2024-02-26T00:53:45;99892.47;;;5.21;100.00
29909;BME280;36247;51.952;6.146;2024-02-26T00:56:11;99903.03;;;5.24;100.00
29909;BME280;36247;51.952;6.146;2024-02-26T00:58:36;99896.03;;;5.25;100.00
29909;BME280;36247;51.952;6.146;2024-02-26T01:01:01;99897.09;;;5.33;100.00
29909;BME280;36247;51.952;6.146;2024-02-26T01:03:28;99889.16;;;5.32;100.00
29909;BME280;36247;51.952;6.146;2024-02-26T01:05:54;99895.22;;;5.27;100.00
29909;BME280;36247;51.952;6.146;2024-02-26T01:08:19;99897.97;;;5.35;100.00
29909;BME280;36247;51.952;6.146;2024-02-26T01:10:45;99906.09;;;5.47;100.00
29909;BME280;36247;51.952;6.146;2024-02-26T01:13:10;99898.19;;;5.46;100.00
29909;BME280;36247;51.952;6.146;2024-02-26T01:15:36;99898.91;;;5.39;100.00
29909;BME280;36247;51.952;6.146;2024-02-26T01:18:01;99893.78;;;5.43;100.00
29909;BME280;36247;51.952;6.146;2024-02-26T01:20:27;99892.75;;;5.37;100.00
29909;BME280;36247;51.952;6.146;2024-02-26T01:22:52;99900.53;;;5.30;100.00
29909;BME280;36247;51.952;6.146;2024-02-26T01:25:17;99900.66;;;5.38;100.00
29909;BME280;36247;51.952;6.146;2024-02-26T01:27:43;99902.31;;;5.32;100.00
29909;BME280;36247;51.952;6.146;2024-02-26T01:30:10;99905.03;;;5.36;100.00
29909;BME280;36247;51.952;6.146;2024-02-26T01:32:35;99906.72;;;5.34;100.00
29909;BME280;36247;51.952;6.146;2024-02-26T01:35:01;99905.88;;;5.35;100.00
29909;BME280;36247;51.952;6.146;2024-02-26T01:37:29;99902.44;;;5.39;100.00
29909;BME280;36247;51.952;6.146;2024-02-26T01:39:55;99898.94;;;5.40;100.00
29909;BME280;36247;51.952;6.146;2024-02-26T01:42:20;99895.31;;;5.32;100.00
29909;BME280;36247;51.952;6.146;2024-02-26T01:44:46;99911.06;;;5.32;100.00
29909;BME280;36247;51.952;6.146;2024-02-26T01:47:12;99919.09;;;5.40;100.00
29909;BME280;36247;51.952;6.146;2024-02-26T01:49:39;99928.84;;;5.45;100.00
29909;BME280;36247;51.952;6.146;2024-02-26T01:52:06;99926.03;;;5.36;100.00
29909;BME280;36247;51.952;6.146;2024-02-26T01:54:35;99926.16;;;5.42;100.00
29909;BME280;36247;51.952;6.146;2024-02-26T01:57:02;99941.84;;;5.39;100.00
29909;BME280;36247;51.952;6.146;2024-02-26T01:59:29;99937.63;;;5.47;100.00
29909;BME280;36247;51.952;6.146;2024-02-26T02:01:55;99939.31;;;5.44;100.00
29909;BME280;36247;51.952;6.146;2024-02-26T02:04:23;99945.44;;;5.44;100.00
29909;BME280;36247;51.952;6.146;2024-02-26T02:06:48;99943.78;;;5.48;100.00
29909;BME280;36247;51.952;6.146;2024-02-26T02:09:14;99945.47;;;5.46;100.00
29909;BME280;36247;51.952;6.146;2024-02-26T02:11:39;99953.38;;;5.47;100.00
29909;BME280;36247;51.952;6.146;2024-02-26T02:14:05;99950.19;;;5.64;100.00
29909;BME280;36247;51.952;6.146;2024-02-26T02:16:31;99946.69;;;5.62;100.00
29909;BME280;36247;51.952;6.146;2024-02-26T02:19:00;99948.28;;;5.55;100.00
29909;BME280;36247;51.952;6.146;2024-02-26T02:21:25;99946.50;;;5.53;100.00
29909;BME280;36247;51.952;6.146;2024-02-26T02:23:51;99951.00;;;5.58;100.00
29909;BME280;36247;51.952;6.146;2024-02-26T02:26:17;99955.16;;;5.48;100.00
29909;BME280;36247;51.952;6.146;2024-02-26T02:28:44;99955.97;;;5.46;100.00
29909;BME280;36247;51.952;6.146;2024-02-26T02:31:10;99956.00;;;5.47;100.00
29909;BME280;36247;51.952;6.146;2024-02-26T02:33:36;99960.34;;;5.45;100.00
29909;BME280;36247;51.952;6.146;2024-02-26T02:36:02;99967.47;;;5.50;100.00
29909;BME280;36247;51.952;6.146;2024-02-26T02:38:27;99969.16;;;5.47;100.00
29909;BME280;36247;51.952;6.146;2024-02-26T02:40:55;99974.28;;;5.41;100.00
29909;BME280;36247;51.952;6.146;2024-02-26T02:43:20;99975.16;;;5.42;100.00
29909;BME280;36247;51.952;6.146;2024-02-26T02:45:46;99984.06;;;5.48;100.00
29909;BME280;36247;51.952;6.146;2024-02-26T02:48:11;99977.03;;;5.47;100.00
29909;BME280;36247;51.952;6.146;2024-02-26T02:50:37;99965.59;;;5.44;100.00
29909;BME280;36247;51.952;6.146;2024-02-26T02:53:03;99971.53;;;5.35;100.00
29909;BME280;36247;51.952;6.146;2024-02-26T02:55:28;99970.81;;;5.42;100.00
29909;BME280;36247;51.952;6.146;2024-02-26T02:57:54;99964.78;;;5.46;100.00
29909;BME280;36247;51.952;6.146;2024-02-26T03:00:19;99957.69;;;5.44;100.00
29909;BME280;36247;51.952;6.146;2024-02-26T03:02:45;99970.00;;;5.45;100.00
29909;BME280;36247;51.952;6.146;2024-02-26T03:05:11;99966.41;;;5.41;100.00
29909;BME280;36247;51.952;6.146;2024-02-26T03:07:37;99964.72;;;5.43;100.00
29909;BME280;36247;51.952;6.146;2024-02-26T03:10:02;99964.91;;;5.54;100.00
29909;BME280;36247;51.952;6.146;2024-02-26T03:12:29;99968.41;;;5.55;100.00
29909;BME280;36247;51.952;6.146;2024-02-26T03:14:54;99970.16;;;5.53;100.00
29909;BME280;36247;51.952;6.146;2024-02-26T03:17:20;99956.81;;;5.43;100.00
29909;BME280;36247;51.952;6.146;2024-02-26T03:19:46;99963.78;;;5.41;100.00
29909;BME280;36247;51.952;6.146;2024-02-26T03:22:13;99958.66;;;5.49;100.00
29909;BME280;36247;51.952;6.146;2024-02-26T03:24:38;99956.28;;;5.60;100.00
29909;BME280;36247;51.952;6.146;2024-02-26T03:27:04;99964.00;;;5.54;100.00
29909;BME280;36247;51.952;6.146;2024-02-26T03:29:35;99961.56;;;5.61;100.00
29909;BME280;36247;51.952;6.146;2024-02-26T03:32:00;99962.38;;;5.59;100.00
29909;BME280;36247;51.952;6.146;2024-02-26T03:34:25;99970.94;;;5.48;100.00
29909;BME280;36247;51.952;6.146;2024-02-26T03:36:51;99973.47;;;5.44;100.00
29909;BME280;36247;51.952;6.146;2024-02-26T03:39:17;99973.59;;;5.50;100.00
29909;BME280;36247;51.952;6.146;2024-02-26T03:41:42;99970.31;;;5.62;100.00
29909;BME280;36247;51.952;6.146;2024-02-26T03:44:08;99971.88;;;5.52;100.00
29909;BME280;36247;51.952;6.146;2024-02-26T03:46:33;99971.78;;;5.47;100.00
29909;BME280;36247;51.952;6.146;2024-02-26T03:48:58;99977.03;;;5.47;100.00
29909;BME280;36247;51.952;6.146;2024-02-26T03:51:24;99981.53;;;5.53;100.00
29909;BME280;36247;51.952;6.146;2024-02-26T03:53:49;99984.00;;;5.45;100.00
29909;BME280;36247;51.952;6.146;2024-02-26T03:56:15;99988.47;;;5.50;100.00
29909;BME280;36247;51.952;6.146;2024-02-26T03:58:40;99991.00;;;5.45;100.00
29909;BME280;36247;51.952;6.146;2024-02-26T04:01:09;99988.41;;;5.46;100.00
29909;BME280;36247;51.952;6.146;2024-02-26T04:03:34;99988.38;;;5.45;100.00
29909;BME280;36247;51.952;6.146;2024-02-26T04:06:00;99988.47;;;5.50;100.00
29909;BME280;36247;51.952;6.146;2024-02-26T04:08:26;99991.06;;;5.48;100.00
29909;BME280;36247;51.952;6.146;2024-02-26T04:10:51;99991.97;;;5.50;100.00
29909;BME280;36247;51.952;6.146;2024-02-26T04:13:17;99991.88;;;5.45;100.00
29909;BME280;36247;51.952;6.146;2024-02-26T04:15:43;100002.44;;;5.48;100.00
29909;BME280;36247;51.952;6.146;2024-02-26T04:18:08;100001.41;;;5.42;100.00
29909;BME280;36247;51.952;6.146;2024-02-26T04:20:33;100009.19;;;5.36;100.00
29909;BME280;36247;51.952;6.146;2024-02-26T04:22:59;100003.81;;;5.31;100.00
29909;BME280;36247;51.952;6.146;2024-02-26T04:25:24;100013.56;;;5.35;100.00
29909;BME280;36247;51.952;6.146;2024-02-26T04:27:49;100009.88;;;5.27;100.00
29909;BME280;36247;51.952;6.146;2024-02-26T04:30:15;100023.13;;;5.32;100.00
29909;BME280;36247;51.952;6.146;2024-02-26T04:32:42;100016.97;;;5.31;100.00
29909;BME280;36247;51.952;6.146;2024-02-26T04:35:07;100024.03;;;5.34;100.00
29909;BME280;36247;51.952;6.146;2024-02-26T04:37:33;100024.91;;;5.34;100.00
29909;BME280;36247;51.952;6.146;2024-02-26T04:40:00;100023.09;;;5.30;100.00
29909;BME280;36247;51.952;6.146;2024-02-26T04:42:26;100032.59;;;5.25;100.00
29909;BME280;36247;51.952;6.146;2024-02-26T04:44:51;100042.13;;;5.20;100.00
29909;BME280;36247;51.952;6.146;2024-02-26T04:47:17;100037.00;;;5.26;100.00
29909;BME280;36247;51.952;6.146;2024-02-26T04:49:42;100035.06;;;5.19;100.00
29909;BME280;36247;51.952;6.146;2024-02-26T04:52:07;100036.00;;;5.22;100.00
29909;BME280;36247;51.952;6.146;2024-02-26T04:54:33;100041.75;;;5.04;100.00
29909;BME280;36247;51.952;6.146;2024-02-26T04:56:58;100038.47;;;5.15;100.00
29909;BME280;36247;51.952;6.146;2024-02-26T04:59:24;100032.91;;;5.01;100.00
29909;BME280;36247;51.952;6.146;2024-02-26T05:01:49;100034.84;;;5.08;100.00
29909;BME280;36247;51.952;6.146;2024-02-26T05:04:16;100033.16;;;5.11;100.00
29909;BME280;36247;51.952;6.146;2024-02-26T05:06:42;100031.47;;;5.14;100.00
29909;BME280;36247;51.952;6.146;2024-02-26T05:09:07;100024.38;;;5.09;100.00
29909;BME280;36247;51.952;6.146;2024-02-26T05:11:33;100038.22;;;5.04;100.00
29909;BME280;36247;51.952;6.146;2024-02-26T05:13:58;100032.09;;;5.03;100.00
29909;BME280;36247;51.952;6.146;2024-02-26T05:16:25;100036.38;;;5.00;100.00
29909;BME280;36247;51.952;6.146;2024-02-26T05:18:52;100036.34;;;4.98;100.00
29909;BME280;36247;51.952;6.146;2024-02-26T05:21:18;100042.66;;;5.05;100.00
29909;BME280;36247;51.952;6.146;2024-02-26T05:23:43;100035.41;;;4.94;100.00
29909;BME280;36247;51.952;6.146;2024-02-26T05:26:09;100036.47;;;5.04;100.00
29909;BME280;36247;51.952;6.146;2024-02-26T05:28:35;100045.88;;;4.93;100.00
29909;BME280;36247;51.952;6.146;2024-02-26T05:31:01;100028.63;;;5.04;100.00
29909;BME280;36247;51.952;6.146;2024-02-26T05:33:26;100035.50;;;4.99;100.00
29909;BME280;36247;51.952;6.146;2024-02-26T05:35:52;100038.91;;;4.95;100.00
29909;BME280;36247;51.952;6.146;2024-02-26T05:38:17;100054.38;;;4.83;100.00
29909;BME280;36247;51.952;6.146;2024-02-26T05:40:42;100057.34;;;4.98;100.00
29909;BME280;36247;51.952;6.146;2024-02-26T05:43:08;100055.28;;;4.85;100.00
29909;BME280;36247;51.952;6.146;2024-02-26T05:45:33;100058.88;;;4.88;100.00
29909;BME280;36247;51.952;6.146;2024-02-26T05:47:59;100058.91;;;4.90;100.00
29909;BME280;36247;51.952;6.146;2024-02-26T05:50:24;100063.22;;;4.88;100.00
29909;BME280;36247;51.952;6.146;2024-02-26T05:52:50;100059.72;;;4.87;100.00
29909;BME280;36247;51.952;6.146;2024-02-26T05:55:16;100061.53;;;4.90;100.00
29909;BME280;36247;51.952;6.146;2024-02-26T05:57:41;100068.50;;;4.89;100.00
29909;BME280;36247;51.952;6.146;2024-02-26T06:00:07;100063.41;;;4.95;100.00
29909;BME280;36247;51.952;6.146;2024-02-26T06:02:38;100061.38;;;4.82;100.00
29909;BME280;36247;51.952;6.146;2024-02-26T06:05:04;100076.19;;;4.82;100.00
29909;BME280;36247;51.952;6.146;2024-02-26T06:07:29;100075.25;;;4.78;100.00
29909;BME280;36247;51.952;6.146;2024-02-26T06:09:55;100082.25;;;4.79;100.00
29909;BME280;36247;51.952;6.146;2024-02-26T06:12:20;100088.41;;;4.80;100.00
29909;BME280;36247;51.952;6.146;2024-02-26T06:14:46;100094.75;;;4.89;100.00
29909;BME280;36247;51.952;6.146;2024-02-26T06:17:12;100095.41;;;4.81;100.00
29909;BME280;36247;51.952;6.146;2024-02-26T06:19:37;100096.19;;;4.76;100.00
29909;BME280;36247;51.952;6.146;2024-02-26T06:22:03;100095.38;;;4.79;100.00
29909;BME280;36247;51.952;6.146;2024-02-26T06:24:28;100097.16;;;4.80;100.00
29909;BME280;36247;51.952;6.146;2024-02-26T06:26:53;100094.59;;;4.83;100.00
29909;BME280;36247;51.952;6.146;2024-02-26T06:29:19;100103.38;;;4.84;100.00
29909;BME280;36247;51.952;6.146;2024-02-26T06:31:44;100103.38;;;4.84;100.00
29909;BME280;36247;51.952;6.146;2024-02-26T06:34:10;100112.03;;;4.80;100.00
29909;BME280;36247;51.952;6.146;2024-02-26T06:36:36;100119.88;;;4.78;100.00
29909;BME280;36247;51.952;6.146;2024-02-26T06:39:02;100121.84;;;4.87;100.00
29909;BME280;36247;51.952;6.146;2024-02-26T06:41:27;100112.06;;;4.81;100.00
29909;BME280;36247;51.952;6.146;2024-02-26T06:43:55;100107.66;;;4.80;100.00
29909;BME280;36247;51.952;6.146;2024-02-26T06:46:20;100117.38;;;4.84;100.00
29909;BME280;36247;51.952;6.146;2024-02-26T06:48:48;100121.00;;;4.89;100.00
29909;BME280;36247;51.952;6.146;2024-02-26T06:51:13;100121.88;;;4.88;100.00
29909;BME280;36247;51.952;6.146;2024-02-26T06:53:39;100123.66;;;4.91;100.00
29909;BME280;36247;51.952;6.146;2024-02-26T06:56:04;100127.31;;;4.96;100.00
29909;BME280;36247;51.952;6.146;2024-02-26T06:58:30;100128.88;;;4.89;100.00
29909;BME280;36247;51.952;6.146;2024-02-26T07:00:55;100126.22;;;4.88;100.00
29909;BME280;36247;51.952;6.146;2024-02-26T07:03:21;100129.78;;;4.90;100.00
29909;BME280;36247;51.952;6.146;2024-02-26T07:05:48;100131.56;;;4.92;100.00
29909;BME280;36247;51.952;6.146;2024-02-26T07:08:13;100141.97;;;4.88;100.00
29909;BME280;36247;51.952;6.146;2024-02-26T07:10:39;100138.84;;;5.03;100.00
29909;BME280;36247;51.952;6.146;2024-02-26T07:13:04;100137.75;;;4.93;100.00
29909;BME280;36247;51.952;6.146;2024-02-26T07:15:29;100141.31;;;4.97;100.00
29909;BME280;36247;51.952;6.146;2024-02-26T07:17:55;100139.59;;;4.97;100.00
29909;BME280;36247;51.952;6.146;2024-02-26T07:20:20;100148.44;;;5.01;100.00
29909;BME280;36247;51.952;6.146;2024-02-26T07:22:45;100146.53;;;4.95;100.00
29909;BME280;36247;51.952;6.146;2024-02-26T07:25:11;100150.91;;;4.94;100.00
29909;BME280;36247;51.952;6.146;2024-02-26T07:27:39;100155.38;;;4.99;100.00
29909;BME280;36247;51.952;6.146;2024-02-26T07:30:06;100159.88;;;5.04;100.00
29909;BME280;36247;51.952;6.146;2024-02-26T07:32:33;100165.69;;;4.92;100.00
29909;BME280;36247;51.952;6.146;2024-02-26T07:34:58;100157.97;;;4.97;100.00
29909;BME280;36247;51.952;6.146;2024-02-26T07:37:24;100170.91;;;4.91;100.00
29909;BME280;36247;51.952;6.146;2024-02-26T07:39:49;100168.59;;;5.02;100.00
29909;BME280;36247;51.952;6.146;2024-02-26T07:42:14;100165.25;;;5.09;100.00
29909;BME280;36247;51.952;6.146;2024-02-26T07:44:40;100165.16;;;5.06;100.00
29909;BME280;36247;51.952;6.146;2024-02-26T07:47:09;100169.69;;;5.11;100.00
29909;BME280;36247;51.952;6.146;2024-02-26T07:49:34;100168.75;;;5.08;100.00
29909;BME280;36247;51.952;6.146;2024-02-26T07:51:59;100175.09;;;5.18;100.00
29909;BME280;36247;51.952;6.146;2024-02-26T07:54:25;100173.91;;;5.05;100.00
29909;BME280;36247;51.952;6.146;2024-02-26T07:56:50;100176.72;;;5.12;100.00
29909;BME280;36247;51.952;6.146;2024-02-26T07:59:16;100174.06;;;5.11;100.00
29909;BME280;36247;51.952;6.146;2024-02-26T08:01:41;100185.28;;;5.05;100.00
29909;BME280;36247;51.952;6.146;2024-02-26T08:04:07;100184.59;;;5.12;100.00
29909;BME280;36247;51.952;6.146;2024-02-26T08:06:32;100188.00;;;5.08;100.00
29909;BME280;36247;51.952;6.146;2024-02-26T08:08:58;100188.84;;;5.07;100.00
29909;BME280;36247;51.952;6.146;2024-02-26T08:11:25;100188.88;;;5.09;100.00
29909;BME280;36247;51.952;6.146;2024-02-26T08:13:51;100186.28;;;5.10;100.00
29909;BME280;36247;51.952;6.146;2024-02-26T08:16:16;100189.97;;;5.17;100.00
29909;BME280;36247;51.952;6.146;2024-02-26T08:18:42;100190.63;;;5.08;100.00
29909;BME280;36247;51.952;6.146;2024-02-26T08:21:07;100200.31;;;5.11;100.00
29909;BME280;36247;51.952;6.146;2024-02-26T08:23:33;100195.03;;;5.09;100.00
29909;BME280;36247;51.952;6.146;2024-02-26T08:25:59;100200.22;;;5.06;100.00
29909;BME280;36247;51.952;6.146;2024-02-26T08:28:24;100203.88;;;5.13;100.00
29909;BME280;36247;51.952;6.146;2024-02-26T08:30:50;100210.13;;;5.18;100.00
29909;BME280;36247;51.952;6.146;2024-02-26T08:33:15;100198.88;;;5.24;100.00
29909;BME280;36247;51.952;6.146;2024-02-26T08:35:41;100203.06;;;5.16;100.00
29909;BME280;36247;51.952;6.146;2024-02-26T08:38:06;100214.47;;;5.18;100.00
29909;BME280;36247;51.952;6.146;2024-02-26T08:40:32;100211.97;;;5.22;100.00
29909;BME280;36247;51.952;6.146;2024-02-26T08:42:57;100217.84;;;5.12;100.00
29909;BME280;36247;51.952;6.146;2024-02-26T08:45:23;100217.97;;;5.17;100.00
29909;BME280;36247;51.952;6.146;2024-02-26T08:47:48;100226.97;;;5.26;100.00
29909;BME280;36247;51.952;6.146;2024-02-26T08:50:14;100223.59;;;5.32;100.00
29909;BME280;36247;51.952;6.146;2024-02-26T08:52:39;100227.03;;;5.29;100.00
29909;BME280;36247;51.952;6.146;2024-02-26T08:55:06;100230.69;;;5.35;100.00
29909;BME280;36247;51.952;6.146;2024-02-26T08:57:34;100235.81;;;5.30;100.00
29909;BME280;36247;51.952;6.146;2024-02-26T09:00:00;100240.22;;;5.31;100.00
29909;BME280;36247;51.952;6.146;2024-02-26T09:02:26;100255.06;;;5.29;100.00
29909;BME280;36247;51.952;6.146;2024-02-26T09:04:51;100242.59;;;5.22;100.00
29909;BME280;36247;51.952;6.146;2024-02-26T09:07:19;100247.94;;;5.25;100.00
29909;BME280;36247;51.952;6.146;2024-02-26T09:09:45;100240.06;;;5.25;100.00
29909;BME280;36247;51.952;6.146;2024-02-26T09:12:10;100239.25;;;5.27;100.00
29909;BME280;36247;51.952;6.146;2024-02-26T09:14:36;100258.59;;;5.31;100.00
29909;BME280;36247;51.952;6.146;2024-02-26T09:17:01;100249.03;;;5.33;100.00
29909;BME280;36247;51.952;6.146;2024-02-26T09:19:27;100255.13;;;5.32;100.00
29909;BME280;36247;51.952;6.146;2024-02-26T09:21:55;100261.72;;;5.50;100.00
29909;BME280;36247;51.952;6.146;2024-02-26T09:24:23;100257.19;;;5.44;100.00
29909;BME280;36247;51.952;6.146;2024-02-26T09:26:49;100266.69;;;5.40;100.00
29909;BME280;36247;51.952;6.146;2024-02-26T09:29:14;100268.41;;;5.38;100.00
29909;BME280;36247;51.952;6.146;2024-02-26T09:31:40;100268.53;;;5.43;100.00
29909;BME280;36247;51.952;6.146;2024-02-26T09:34:07;100269.78;;;5.57;100.00
29909;BME280;36247;51.952;6.146;2024-02-26T09:36:33;100282.91;;;5.57;100.00
29909;BME280;36247;51.952;6.146;2024-02-26T09:38:59;100281.94;;;5.54;100.00
29909;BME280;36247;51.952;6.146;2024-02-26T09:41:27;100285.28;;;5.46;100.00
29909;BME280;36247;51.952;6.146;2024-02-26T09:43:56;100293.50;;;5.60;100.00
29909;BME280;36247;51.952;6.146;2024-02-26T09:46:22;100294.13;;;5.50;100.00
29909;BME280;36247;51.952;6.146;2024-02-26T09:48:49;100298.59;;;5.54;100.00
29909;BME280;36247;51.952;6.146;2024-02-26T09:51:15;100303.97;;;5.59;100.00
29909;BME280;36247;51.952;6.146;2024-02-26T09:53:43;100303.84;;;5.54;100.00
29909;BME280;36247;51.952;6.146;2024-02-26T09:56:11;100318.91;;;5.60;100.00
29909;BME280;36247;51.952;6.146;2024-02-26T09:58:39;100315.50;;;5.65;100.00
29909;BME280;36247;51.952;6.146;2024-02-26T10:01:10;100322.59;;;5.68;100.00
29909;BME280;36247;51.952;6.146;2024-02-26T10:03:41;100320.06;;;5.73;100.00
29909;BME280;36247;51.952;6.146;2024-02-26T10:06:13;100319.19;;;5.72;100.00
29909;BME280;36247;51.952;6.146;2024-02-26T10:08:39;100321.81;;;5.72;100.00
29909;BME280;36247;51.952;6.146;2024-02-26T10:11:06;100327.13;;;5.74;100.00
29909;BME280;36247;51.952;6.146;2024-02-26T10:13:32;100321.69;;;5.66;100.00
29909;BME280;36247;51.952;6.146;2024-02-26T10:15:57;100329.03;;;5.79;100.00
29909;BME280;36247;51.952;6.146;2024-02-26T10:18:24;100327.09;;;5.72;100.00
29909;BME280;36247;51.952;6.146;2024-02-26T10:21:00;100326.31;;;5.76;100.00
29909;BME280;36247;51.952;6.146;2024-02-26T10:23:26;100335.69;;;5.67;100.00
29909;BME280;36247;51.952;6.146;2024-02-26T10:25:53;100338.25;;;5.63;100.00
29909;BME280;36247;51.952;6.146;2024-02-26T10:28:19;100346.31;;;5.71;100.00
29909;BME280;36247;51.952;6.146;2024-02-26T10:30:45;100350.63;;;5.68;100.00
29909;BME280;36247;51.952;6.146;2024-02-26T10:33:11;100354.09;;;5.67;100.00
29909;BME280;36247;51.952;6.146;2024-02-26T10:35:36;100366.34;;;5.66;100.00
29909;BME280;36247;51.952;6.146;2024-02-26T10:38:06;100373.41;;;5.69;100.00
29909;BME280;36247;51.952;6.146;2024-02-26T10:40:32;100375.22;;;5.71;100.00
29909;BME280;36247;51.952;6.146;2024-02-26T10:42:58;100378.81;;;5.73;100.00
29909;BME280;36247;51.952;6.146;2024-02-26T10:45:23;100381.59;;;5.79;100.00
29909;BME280;36247;51.952;6.146;2024-02-26T10:47:48;100390.41;;;5.81;100.00
29909;BME280;36247;51.952;6.146;2024-02-26T10:50:14;100389.41;;;5.76;100.00
29909;BME280;36247;51.952;6.146;2024-02-26T10:52:42;100396.09;;;5.65;100.00
29909;BME280;36247;51.952;6.146;2024-02-26T10:55:15;100400.94;;;5.83;100.00
29909;BME280;36247;51.952;6.146;2024-02-26T10:57:41;100407.00;;;5.80;100.00
29909;BME280;36247;51.952;6.146;2024-02-26T11:00:08;100411.78;;;5.62;100.00
29909;BME280;36247;51.952;6.146;2024-02-26T11:02:38;100409.41;;;5.71;100.00
29909;BME280;36247;51.952;6.146;2024-02-26T11:05:06;100413.13;;;5.79;100.00
29909;BME280;36247;51.952;6.146;2024-02-26T11:07:32;100407.56;;;5.69;100.00
29909;BME280;36247;51.952;6.146;2024-02-26T11:09:59;100422.66;;;5.76;100.00
29909;BME280;36247;51.952;6.146;2024-02-26T11:12:27;100415.41;;;5.67;100.00
29909;BME280;36247;51.952;6.146;2024-02-26T11:14:54;100415.53;;;5.72;100.00
29909;BME280;36247;51.952;6.146;2024-02-26T11:17:22;100417.22;;;5.68;100.00
29909;BME280;36247;51.952;6.146;2024-02-26T11:19:50;100423.31;;;5.67;100.00
29909;BME280;36247;51.952;6.146;2024-02-26T11:22:16;100426.94;;;5.71;100.00
29909;BME280;36247;51.952;6.146;2024-02-26T11:24:42;100421.88;;;5.78;100.00
29909;BME280;36247;51.952;6.146;2024-02-26T11:27:10;100428.69;;;5.72;100.00
29909;BME280;36247;51.952;6.146;2024-02-26T11:29:43;100426.88;;;5.69;100.00
29909;BME280;36247;51.952;6.146;2024-02-26T11:32:10;100442.91;;;5.78;100.00
29909;BME280;36247;51.952;6.146;2024-02-26T11:34:36;100432.22;;;5.72;100.00
29909;BME280;36247;51.952;6.146;2024-02-26T11:37:12;100436.41;;;5.65;100.00
29909;BME280;36247;51.952;6.146;2024-02-26T11:39:40;100436.41;;;5.65;100.00
29909;BME280;36247;51.952;6.146;2024-02-26T11:42:09;100442.50;;;5.63;100.00
29909;BME280;36247;51.952;6.146;2024-02-26T11:44:35;100451.03;;;5.56;100.00
29909;BME280;36247;51.952;6.146;2024-02-26T11:49:36;100458.34;;;5.66;100.00
29909;BME280;36247;51.952;6.146;2024-02-26T11:52:05;100459.41;;;5.74;100.00
29909;BME280;36247;51.952;6.146;2024-02-26T11:54:52;100450.84;;;5.81;100.00
29909;BME280;36247;51.952;6.146;2024-02-26T11:57:37;100457.56;;;5.70;100.00
29909;BME280;36247;51.952;6.146;2024-02-26T12:02:47;100456.88;;;5.77;100.00
29909;BME280;36247;51.952;6.146;2024-02-26T12:05:16;100460.75;;;5.90;100.00
29909;BME280;36247;51.952;6.146;2024-02-26T12:07:47;100469.50;;;5.91;100.00
29909;BME280;36247;51.952;6.146;2024-02-26T12:10:30;100462.75;;;5.99;100.00
29909;BME280;36247;51.952;6.146;2024-02-26T12:13:05;100459.81;;;5.88;100.00
29909;BME280;36247;51.952;6.146;2024-02-26T12:15:40;100472.13;;;5.91;100.00
29909;BME280;36247;51.952;6.146;2024-02-26T12:18:07;100469.19;;;5.78;100.00
29909;BME280;36247;51.952;6.146;2024-02-26T12:20:33;100479.25;;;5.95;100.00
29909;BME280;36247;51.952;6.146;2024-02-26T12:23:01;100473.09;;;5.93;100.00
29909;BME280;36247;51.952;6.146;2024-02-26T12:25:28;100473.16;;;5.96;100.00
29909;BME280;36247;51.952;6.146;2024-02-26T12:27:54;100476.75;;;5.98;100.00
29909;BME280;36247;51.952;6.146;2024-02-26T12:30:21;100466.75;;;5.86;100.00
29909;BME280;36247;51.952;6.146;2024-02-26T12:32:51;100483.38;;;5.85;100.00
29909;BME280;36247;51.952;6.146;2024-02-26T12:35:17;100485.28;;;5.91;100.00
29909;BME280;36247;51.952;6.146;2024-02-26T12:37:43;100481.00;;;5.94;100.00
29909;BME280;36247;51.952;6.146;2024-02-26T12:40:10;100489.75;;;5.93;100.00
29909;BME280;36247;51.952;6.146;2024-02-26T12:42:36;100495.78;;;5.91;100.00
29909;BME280;36247;51.952;6.146;2024-02-26T12:45:10;100494.03;;;5.90;100.00
29909;BME280;36247;51.952;6.146;2024-02-26T12:47:43;100502.28;;;6.02;100.00
29909;BME280;36247;51.952;6.146;2024-02-26T12:50:10;100505.00;;;6.05;100.00
29909;BME280;36247;51.952;6.146;2024-02-26T12:52:38;100511.09;;;6.04;100.00